Tabor, Iowa
Current Conditions -  °F | °C
As of 4:55 AM on Friday 24 Oct 2014 (Local Time) from KPMV Reporting Station
Haze Haze  
Wind Chill: 56°   Ceiling: Unl
Heat Index: 56°   Visibility: 3mi
Dew Point: 54°   Wind: 6mph
Humidity: 94%   Direction: 160°SSE
Pressure: 29.98"   Gusts: NA
Location:  40.9°N, 95.67°W
Report Text: KPMV 240955Z AUTO 16005KT 3SM BR CLR 13/12 A2998 RMK AO2 T01310121
Loading
Personal Weather Stations






























Interactive Weather Map
Tropical Storm Tracking
New forecast layout! Learn more

10-Day Weather Forecast

Advertisements
Track Severe Weather on mobile